Time;durP1;ratioP1;P1;durP2;ratioP2;P2;SDS_P1;SDS_P2;PMS_P1;PMS_P2;Temp;Humidity;BMP_temperature;BMP_pressure;BME280_temperature;BME280_humidity;BME280_pressure;Samples;Min_cycle;Max_cycle;Signal;HPM_P1;HPM_P2
2023/07/15 00:01:18;;;;;;;0.90;0.50;;;;;;;17.15;100.00;99754.77;104900;1255;62201;-47
2023/07/15 00:03:46;;;;;;;4.30;0.50;;;;;;;17.13;100.00;99754.73;105361;1254;60587;-48
2023/07/15 00:06:14;;;;;;;1.00;0.60;;;;;;;17.11;100.00;99754.17;104464;1255;72669;-47
2023/07/15 00:08:43;;;;;;;2.20;0.50;;;;;;;17.09;100.00;99758.63;104752;1255;67704;-47
2023/07/15 00:11:16;;;;;;;1.10;0.40;;;;;;;17.07;100.00;99758.60;105460;1256;72433;-47
2023/07/15 00:13:43;;;;;;;3.60;0.60;;;;;;;17.05;100.00;99762.92;104840;1260;61693;-48
2023/07/15 00:16:10;;;;;;;1.20;0.50;;;;;;;17.03;100.00;99761.25;104834;1256;62138;-48
2023/07/15 00:18:38;;;;;;;2.30;0.60;;;;;;;17.01;100.00;99769.78;104845;1260;74702;-47
2023/07/15 00:21:20;;;;;;;3.60;1.00;;;;;;;16.98;100.00;99774.34;104941;1255;66602;-48
2023/07/15 00:23:55;;;;;;;2.30;1.00;;;;;;;16.94;100.00;99773.68;108780;1254;72469;-49
2023/07/15 00:26:32;;;;;;;4.50;0.50;;;;;;;16.92;100.00;99776.98;108962;1254;62277;-49
2023/07/15 00:29:00;;;;;;;1.00;0.50;;;;;;;16.87;100.00;99778.40;108912;1255;58756;-48
2023/07/15 00:31:28;;;;;;;1.30;0.50;;;;;;;16.82;100.00;99776.77;108880;1254;72593;-49
2023/07/15 00:33:55;;;;;;;1.10;0.50;;;;;;;16.80;100.00;99778.25;108958;1255;66667;-49
2023/07/15 00:36:22;;;;;;;0.80;0.40;;;;;;;16.79;100.00;99777.58;108978;1255;72661;-49
2023/07/15 00:38:50;;;;;;;4.50;0.60;;;;;;;16.76;100.00;99781.75;108795;1254;60601;-48
2023/07/15 00:41:19;;;;;;;1.60;0.50;;;;;;;16.74;100.00;99784.30;108815;1255;58810;-49
2023/07/15 00:43:58;;;;;;;3.20;0.50;;;;;;;16.73;100.00;99786.20;108944;1255;72647;-49
2023/07/15 00:47:02;;;;;;;1.30;0.50;;;;;;;16.71;100.00;99786.16;108823;1255;69716;-49
2023/07/15 00:49:31;;;;;;;1.80;0.50;;;;;;;16.69;100.00;99790.66;108817;1254;73024;-49
2023/07/15 00:52:12;;;;;;;2.60;0.60;;;;;;;16.67;100.00;99790.94;108851;1255;60370;-49
2023/07/15 00:54:42;;;;;;;3.00;0.60;;;;;;;16.65;100.00;99789.09;108824;1255;60003;-49
2023/07/15 00:57:09;;;;;;;2.70;0.50;;;;;;;16.64;100.00;99786.30;108564;1255;73744;-49
2023/07/15 00:59:40;;;;;;;1.20;0.50;;;;;;;16.63;100.00;99789.79;104746;1255;67527;-47
2023/07/15 01:02:08;;;;;;;5.90;0.40;;;;;;;16.61;100.00;99792.05;104264;1255;72675;-47
2023/07/15 01:04:36;;;;;;;5.60;0.50;;;;;;;16.60;100.00;99795.73;108583;1255;62187;-49
2023/07/15 01:07:07;;;;;;;1.90;0.50;;;;;;;16.58;100.00;99798.79;108611;1255;59061;-49
2023/07/15 01:09:36;;;;;;;0.70;0.50;;;;;;;16.55;100.00;99805.38;106642;1257;74727;-48
2023/07/15 01:12:04;;;;;;;1.40;0.40;;;;;;;16.52;100.00;99806.29;105418;1255;67729;-47
2023/07/15 01:14:32;;;;;;;9.20;0.60;;;;;;;16.49;100.00;99808.71;104260;1260;74813;-47
2023/07/15 01:17:02;;;;;;;1.60;0.40;;;;;;;16.47;100.00;99808.52;104441;1258;61909;-48
2023/07/15 01:19:30;;;;;;;2.30;0.40;;;;;;;16.44;100.00;99810.52;108635;1260;58929;-48
2023/07/15 01:21:58;;;;;;;2.20;0.50;;;;;;;16.40;100.00;99817.33;108667;1255;72755;-49
2023/07/15 01:24:26;;;;;;;4.30;0.70;;;;;;;16.38;100.00;99818.38;107965;1255;66063;-47
2023/07/15 01:26:56;;;;;;;0.70;0.40;;;;;;;16.37;100.00;99818.81;104312;1255;71415;-46
2023/07/15 01:29:25;;;;;;;1.30;0.40;;;;;;;16.36;100.00;99818.16;104539;1255;62234;-47
2023/07/15 01:31:52;;;;;;;5.30;0.50;;;;;;;16.35;100.00;99817.12;104504;1255;60975;-46
2023/07/15 01:34:21;;;;;;;2.10;0.60;;;;;;;16.34;100.00;99814.32;104914;1259;72609;-47
2023/07/15 01:36:48;;;;;;;1.30;0.60;;;;;;;16.32;100.00;99819.02;105027;1256;66564;-47
2023/07/15 01:39:16;;;;;;;5.80;0.70;;;;;;;16.28;100.00;99819.23;104591;1261;72747;-45
2023/07/15 01:41:44;;;;;;;1.00;0.60;;;;;;;16.24;100.00;99820.47;104263;1261;60588;-47
2023/07/15 01:44:12;;;;;;;3.10;0.60;;;;;;;16.20;100.00;99822.58;108640;1255;60005;-49
2023/07/15 01:46:40;;;;;;;2.10;0.50;;;;;;;16.16;100.00;99822.67;105626;1255;72521;-48
2023/07/15 01:49:08;;;;;;;1.00;0.50;;;;;;;16.12;100.00;99825.61;106259;1258;66577;-46
2023/07/15 01:51:36;;;;;;;0.70;0.50;;;;;;;16.10;100.00;99828.67;107335;1255;71405;-46
2023/07/15 01:54:03;;;;;;;2.60;0.60;;;;;;;16.08;100.00;99832.66;104297;1256;60772;-48
2023/07/15 01:56:30;;;;;;;1.00;0.50;;;;;;;16.06;100.00;99840.73;104436;1254;60650;-47
2023/07/15 01:58:58;;;;;;;3.60;0.70;;;;;;;16.05;100.00;99837.75;104968;1256;74558;-48
2023/07/15 02:01:26;;;;;;;8.20;0.60;;;;;;;16.03;100.00;99840.77;104938;1255;67018;-48
2023/07/15 02:03:54;;;;;;;3.30;0.50;;;;;;;16.02;100.00;99846.79;104211;1256;72503;-48
2023/07/15 02:06:22;;;;;;;4.30;0.50;;;;;;;16.02;100.00;99844.81;104219;1256;63667;-47
2023/07/15 02:08:50;;;;;;;2.90;0.80;;;;;;;16.02;100.00;99846.80;105392;1256;60450;-47
2023/07/15 02:11:17;;;;;;;2.30;0.50;;;;;;;16.01;100.00;99846.70;104255;1260;73972;-47
2023/07/15 02:13:44;;;;;;;4.10;0.60;;;;;;;15.99;100.00;99848.09;104293;1255;68138;-47
2023/07/15 02:16:12;;;;;;;1.90;0.60;;;;;;;15.98;100.00;99853.29;104471;1260;73094;-47
2023/07/15 02:18:42;;;;;;;1.00;0.50;;;;;;;15.96;100.00;99855.72;104356;1261;61229;-47
2023/07/15 02:21:09;;;;;;;2.10;0.60;;;;;;;15.95;100.00;99857.08;104216;1260;61891;-48
2023/07/15 02:23:37;;;;;;;4.30;0.60;;;;;;;15.95;100.00;99859.08;104722;1258;73817;-47
2023/07/15 02:26:04;;;;;;;5.30;0.60;;;;;;;15.94;100.00;99860.07;105067;1260;66749;-47
2023/07/15 02:28:32;;;;;;;0.60;0.50;;;;;;;15.93;100.00;99859.77;104936;1260;72703;-48
2023/07/15 02:31:01;;;;;;;0.60;0.40;;;;;;;15.91;100.00;99863.65;104451;1256;62222;-47
2023/07/15 02:33:29;;;;;;;2.20;0.80;;;;;;;15.92;100.00;99864.70;104010;1255;60644;-47
2023/07/15 02:35:56;;;;;;;1.30;0.40;;;;;;;15.94;100.00;99869.12;104149;1256;72597;-46
2023/07/15 02:38:23;;;;;;;2.70;0.60;;;;;;;15.95;100.00;99870.11;104334;1256;68211;-47
2023/07/15 02:40:50;;;;;;;2.30;0.60;;;;;;;15.97;100.00;99870.90;104258;1261;72679;-46
2023/07/15 02:43:19;;;;;;;0.80;0.60;;;;;;;15.99;100.00;99872.53;104023;1256;60680;-46
2023/07/15 02:45:51;;;;;;;2.40;0.50;;;;;;;16.03;100.00;99875.52;106230;1260;60447;-46
2023/07/15 02:48:19;;;;;;;3.40;0.60;;;;;;;16.07;100.00;99875.45;104205;1256;74361;-46
2023/07/15 02:50:54;;;;;;;3.10;0.60;;;;;;;16.10;100.00;99874.69;107406;1256;67608;-47
2023/07/15 02:53:22;;;;;;;2.50;0.50;;;;;;;16.13;100.00;99879.70;104172;1256;72799;-47
2023/07/15 02:55:50;;;;;;;2.70;0.60;;;;;;;16.16;100.00;99882.40;104135;1257;60794;-48
2023/07/15 02:58:18;;;;;;;1.70;0.60;;;;;;;16.19;100.00;99883.59;107561;1256;60067;-48
2023/07/15 03:00:48;;;;;;;2.30;0.50;;;;;;;16.22;100.00;99884.31;105056;1255;187178;-47
2023/07/15 03:05:07;;;;;;;2.10;0.60;;;;;;;16.28;100.00;99899.98;101498;1291;601386;-46
2023/07/15 03:07:35;;;;;;;1.00;0.60;;;;;;;16.30;100.00;99900.44;103867;1266;59373;-47
2023/07/15 03:10:03;;;;;;;1.00;0.70;;;;;;;16.31;100.00;99897.48;104219;1266;60527;-47
2023/07/15 03:12:30;;;;;;;5.30;0.60;;;;;;;16.32;100.00;99899.58;104191;1264;72164;-48
2023/07/15 03:14:57;;;;;;;1.60;0.60;;;;;;;16.34;100.00;99896.35;104111;1266;66519;-47
2023/07/15 03:17:25;;;;;;;1.10;0.60;;;;;;;16.36;100.00;99896.02;104054;1269;72690;-46
2023/07/15 03:19:53;;;;;;;1.50;1.00;;;;;;;16.38;100.00;99891.53;104635;1263;243976;-46
2023/07/15 03:22:20;;;;;;;2.70;0.50;;;;;;;16.40;100.00;99888.52;104397;1268;60022;-46
2023/07/15 03:24:48;;;;;;;2.10;0.60;;;;;;;16.43;100.00;99884.30;104293;1263;72217;-47
2023/07/15 03:27:15;;;;;;;0.90;0.60;;;;;;;16.46;100.00;99888.61;104929;1253;66464;-47
2023/07/15 03:29:42;;;;;;;4.20;0.60;;;;;;;16.50;100.00;99885.63;105038;1254;71432;-47
2023/07/15 03:32:09;;;;;;;1.30;0.70;;;;;;;16.53;100.00;99881.59;105026;1253;61682;-47
2023/07/15 03:34:37;;;;;;;0.50;0.50;;;;;;;16.58;100.00;99884.33;109009;1252;59964;-48
2023/07/15 03:37:08;;;;;;;1.60;0.70;;;;;;;16.63;100.00;99884.19;109165;1252;72223;-49
2023/07/15 03:39:35;;;;;;;2.40;0.70;;;;;;;16.67;100.00;99880.11;108922;1253;65603;-47
2023/07/15 03:42:02;;;;;;;1.80;0.70;;;;;;;16.72;100.00;99883.76;108772;1253;72638;-48
2023/07/15 03:44:30;;;;;;;3.50;0.70;;;;;;;16.77;100.00;99877.42;108818;1252;60298;-48
2023/07/15 03:46:57;;;;;;;2.90;0.60;;;;;;;16.82;100.00;99876.63;108961;1253;58742;-48
2023/07/15 03:49:24;;;;;;;1.70;0.50;;;;;;;16.89;100.00;99877.04;108794;1253;71864;-49
2023/07/15 03:51:52;;;;;;;2.00;0.50;;;;;;;16.95;100.00;99878.42;108911;1253;68613;-47
2023/07/15 03:54:19;;;;;;;2.50;0.50;;;;;;;17.00;100.00;99882.01;108681;1254;72616;-49
2023/07/15 03:56:47;;;;;;;1.40;0.50;;;;;;;17.07;100.00;99876.70;108768;1255;61786;-48
2023/07/15 03:59:14;;;;;;;2.30;0.40;;;;;;;17.11;100.00;99877.04;108879;1254;59236;-48
2023/07/15 04:01:41;;;;;;;4.60;0.60;;;;;;;17.17;100.00;99871.38;108821;1256;71751;-48
2023/07/15 04:04:09;;;;;;;1.60;0.60;;;;;;;17.24;100.00;99877.41;108845;1254;65916;-48
2023/07/15 04:06:37;;;;;;;1.30;0.60;;;;;;;17.29;100.00;99876.11;108920;1255;72749;-47
2023/07/15 04:09:05;;;;;;;1.00;0.60;;;;;;;17.34;100.00;99878.08;105586;1254;62182;-48
2023/07/15 04:11:32;;;;;;;1.80;0.50;;;;;;;17.39;100.00;99881.33;104845;1259;59633;-47
2023/07/15 04:14:00;;;;;;;1.60;0.50;;;;;;;17.43;100.00;99881.45;104810;1261;73180;-46
2023/07/15 04:16:28;;;;;;;1.60;0.40;;;;;;;17.47;100.00;99880.75;104920;1256;66786;-47
2023/07/15 04:18:55;;;;;;;2.00;0.50;;;;;;;17.51;100.00;99882.98;105760;1258;72663;-46
2023/07/15 04:21:23;;;;;;;1.90;0.60;;;;;;;17.57;100.00;99884.00;104836;1256;60557;-46
2023/07/15 04:23:52;;;;;;;0.70;0.50;;;;;;;17.62;100.00;99884.52;104854;1258;59827;-47
2023/07/15 04:26:22;;;;;;;1.20;0.50;;;;;;;17.66;100.00;99889.48;105190;1259;73019;-46
2023/07/15 04:28:49;;;;;;;3.00;0.50;;;;;;;17.69;100.00;99885.81;105033;1256;67508;-47
2023/07/15 04:31:17;;;;;;;2.30;0.50;;;;;;;17.72;100.00;99886.86;104779;1256;71435;-47
2023/07/15 04:33:45;;;;;;;0.80;0.50;;;;;;;17.73;100.00;99886.60;104856;1257;60451;-46
2023/07/15 04:36:13;;;;;;;2.90;0.50;;;;;;;17.74;100.00;99888.14;104811;1259;59646;-46
2023/07/15 04:38:41;;;;;;;1.00;0.50;;;;;;;17.77;100.00;99885.97;105254;1259;72064;-48
2023/07/15 04:41:08;;;;;;;1.10;0.50;;;;;;;17.78;100.00;99890.19;104420;1255;68363;-47
2023/07/15 04:43:36;;;;;;;1.50;0.50;;;;;;;17.79;100.00;99897.36;104782;1258;72755;-47
2023/07/15 04:46:04;;;;;;;1.50;0.40;;;;;;;17.82;100.00;99893.73;104797;1256;60766;-48
2023/07/15 04:48:31;;;;;;;2.90;0.50;;;;;;;17.86;100.00;99888.90;104781;1259;60971;-48
2023/07/15 04:50:59;;;;;;;0.90;0.50;;;;;;;17.90;100.00;99888.04;104848;1256;71724;-49
2023/07/15 04:53:27;;;;;;;2.20;0.50;;;;;;;17.95;100.00;99890.77;105037;1254;68362;-47
2023/07/15 04:55:54;;;;;;;1.00;0.50;;;;;;;17.99;100.00;99890.02;104966;1259;72692;-47
2023/07/15 04:58:21;;;;;;;1.10;0.60;;;;;;;18.07;100.00;99889.26;104823;1259;60967;-47
2023/07/15 05:00:49;;;;;;;2.10;0.50;;;;;;;18.13;100.00;99884.42;104923;1259;59692;-48
2023/07/15 05:03:17;;;;;;;1.40;0.60;;;;;;;18.21;100.00;99879.84;104826;1260;73279;-48
2023/07/15 05:05:46;;;;;;;1.40;0.50;;;;;;;18.29;100.00;99877.96;105289;1259;68628;-47
2023/07/15 05:08:15;;;;;;;3.30;0.50;;;;;;;18.36;100.00;99874.98;104990;1256;72433;-46
2023/07/15 05:10:43;;;;;;;1.60;0.60;;;;;;;18.43;100.00;99873.32;104836;1255;61409;-47
2023/07/15 05:13:11;;;;;;;0.60;0.60;;;;;;;18.49;100.00;99874.09;105512;1256;60012;-46
2023/07/15 05:15:39;;;;;;;0.80;0.50;;;;;;;18.56;100.00;99873.45;104812;1256;71791;-47
2023/07/15 05:18:06;;;;;;;2.90;0.50;;;;;;;18.62;100.00;99869.35;104621;1257;66295;-48
2023/07/15 05:20:34;;;;;;;2.30;0.60;;;;;;;18.67;100.00;99868.16;105453;1259;72697;-47
2023/07/15 05:23:02;;;;;;;0.90;0.60;;;;;;;18.72;100.00;99869.42;104899;1257;60904;-47
2023/07/15 05:25:30;;;;;;;3.00;0.50;;;;;;;18.78;100.00;99865.70;104853;1259;59666;-47
2023/07/15 05:27:58;;;;;;;1.90;0.50;;;;;;;18.85;100.00;99865.30;105246;1256;73504;-46
2023/07/15 05:30:25;;;;;;;0.90;0.50;;;;;;;18.93;100.00;99865.17;104964;1257;67928;-48
2023/07/15 05:32:52;;;;;;;2.80;0.80;;;;;;;19.01;100.00;99860.75;104991;1254;72652;-48
2023/07/15 05:35:20;;;;;;;1.10;0.50;;;;;;;19.09;100.00;99858.45;104794;1257;60459;-47
2023/07/15 05:37:47;;;;;;;0.80;0.50;;;;;;;19.16;100.00;99859.45;104908;1253;60894;-48
2023/07/15 05:40:15;;;;;;;2.00;0.80;;;;;;;19.25;100.00;99859.45;104727;1254;71209;-47
2023/07/15 05:42:42;;;;;;;2.00;0.70;;;;;;;19.34;100.00;99858.73;104761;1254;67896;-47
2023/07/15 05:45:10;;;;;;;2.60;0.50;;;;;;;19.41;100.00;99856.46;104909;1254;71420;-47
2023/07/15 05:47:41;;;;;;;0.60;0.50;;;;;;;19.47;100.00;99853.50;104727;1259;60086;-46
2023/07/15 05:50:09;;;;;;;2.40;0.60;;;;;;;19.51;100.00;99851.64;105509;1257;59993;-46
2023/07/15 05:52:36;;;;;;;1.80;0.50;;;;;;;19.56;100.00;99851.42;104828;1258;73680;-48
2023/07/15 05:55:05;;;;;;;0.60;0.40;;;;;;;19.62;100.00;99847.30;105630;1253;65723;-48
2023/07/15 05:57:32;;;;;;;4.40;0.50;;;;;;;19.67;100.00;99849.95;104769;1254;72646;-48
2023/07/15 06:00:00;;;;;;;1.40;0.50;;;;;;;19.70;100.00;99844.95;105292;1254;61735;-46
2023/07/15 06:02:36;;;;;;;1.10;0.50;;;;;;;19.76;100.00;99848.34;105550;1254;59987;-46
2023/07/15 06:05:04;;;;;;;1.10;0.40;;;;;;;19.81;100.00;99843.48;104796;1253;71823;-48
2023/07/15 06:07:32;;;;;;;3.30;0.50;;;;;;;19.87;100.00;99842.83;105337;1257;67554;-48
2023/07/15 06:10:00;;;;;;;0.80;0.50;;;;;;;19.93;100.00;99843.23;104891;1253;72777;-47
2023/07/15 06:12:27;;;;;;;0.70;0.70;;;;;;;19.98;100.00;99837.23;104963;1253;59748;-47
2023/07/15 06:14:55;;;;;;;0.60;0.50;;;;;;;20.03;100.00;99836.11;105001;1257;59721;-46
2023/07/15 06:17:23;;;;;;;0.90;0.50;;;;;;;20.08;100.00;99833.34;104988;1258;71704;-48
2023/07/15 06:19:50;;;;;;;0.90;0.50;;;;;;;20.14;100.00;99828.27;105027;1256;71784;-48
2023/07/15 06:22:18;;;;;;;1.60;0.50;;;;;;;20.20;100.00;99826.66;104847;1255;72502;-47
2023/07/15 06:24:46;;;;;;;2.20;0.50;;;;;;;20.25;100.00;99830.21;104960;1254;60441;-47
2023/07/15 06:27:13;;;;;;;0.70;0.50;;;;;;;20.31;100.00;99829.68;107363;1256;58704;-46
2023/07/15 06:29:41;;;;;;;1.30;0.50;;;;;;;20.37;100.00;99829.18;104714;1258;73042;-48
2023/07/15 06:32:09;;;;;;;2.60;0.60;;;;;;;20.44;100.00;99827.09;109098;1254;67873;-49
2023/07/15 06:34:36;;;;;;;0.60;0.40;;;;;;;20.52;100.00;99826.37;109075;1254;71405;-47
2023/07/15 06:37:04;;;;;;;0.90;0.50;;;;;;;20.62;100.00;99830.77;109115;1254;59971;-48
2023/07/15 06:39:33;;;;;;;3.90;0.50;;;;;;;20.71;100.00;99829.66;109103;1253;61883;-48
2023/07/15 06:42:00;;;;;;;0.70;0.50;;;;;;;20.78;100.00;99816.77;109124;1253;73508;-48
2023/07/15 06:44:28;;;;;;;1.10;0.50;;;;;;;20.86;100.00;99818.09;108954;1253;66741;-48
2023/07/15 06:46:55;;;;;;;0.60;0.50;;;;;;;20.94;100.00;99819.16;109072;1254;72663;-48
2023/07/15 06:49:23;;;;;;;0.70;0.50;;;;;;;20.99;100.00;99815.19;109098;1257;58841;-48
2023/07/15 06:51:50;;;;;;;1.40;0.50;;;;;;;21.05;100.00;99817.94;108977;1255;58766;-48
2023/07/15 06:54:18;;;;;;;1.60;0.50;;;;;;;21.11;100.00;99818.48;109201;1256;73397;-48
2023/07/15 06:56:45;;;;;;;2.60;0.50;;;;;;;21.17;100.00;99811.21;109057;1255;66093;-48
2023/07/15 06:59:13;;;;;;;0.70;0.50;;;;;;;21.23;100.00;99813.13;109173;1253;73131;-47
2023/07/15 07:01:40;;;;;;;3.10;0.50;;;;;;;21.28;100.00;99810.26;109045;1253;58763;-49
2023/07/15 07:04:07;;;;;;;0.80;0.50;;;;;;;21.32;100.00;99807.48;109089;1253;60035;-47
2023/07/15 07:06:34;;;;;;;0.60;0.50;;;;;;;21.37;100.00;99806.32;108815;1260;73043;-47
2023/07/15 07:09:02;;;;;;;1.00;0.50;;;;;;;21.40;100.00;99802.71;108841;1254;67853;-47
2023/07/15 07:11:29;;;;;;;0.60;0.50;;;;;;;21.44;100.00;99806.39;108693;1253;72615;-46
2023/07/15 07:13:56;;;;;;;0.80;0.40;;;;;;;21.46;100.00;99806.77;104859;1253;60441;-48
2023/07/15 07:16:24;;;;;;;0.70;0.50;;;;;;;21.49;100.00;99805.52;104631;1255;60501;-50
2023/07/15 07:18:51;;;;;;;2.00;0.50;;;;;;;21.55;100.00;99805.95;104791;1258;74179;-47
2023/07/15 07:21:19;;;;;;;1.30;0.50;;;;;;;21.58;100.00;99806.77;105829;1256;68196;-49
2023/07/15 07:23:52;;;;;;;0.60;0.50;;;;;;;21.61;100.00;99804.75;104903;1254;72729;-50
2023/07/15 07:26:19;;;;;;;0.70;0.50;;;;;;;21.70;100.00;99804.90;104928;1256;60502;-48
2023/07/15 07:28:46;;;;;;;0.60;0.30;;;;;;;21.76;100.00;99803.89;104888;1256;60426;-47
2023/07/15 07:31:16;;;;;;;0.50;0.40;;;;;;;21.83;100.00;99802.73;104909;1257;73865;-48
2023/07/15 07:33:44;;;;;;;1.90;0.40;;;;;;;21.89;100.00;99803.92;105170;1259;68175;-46
2023/07/15 07:36:11;;;;;;;0.50;0.40;;;;;;;21.97;100.00;99805.46;105611;1253;72661;-48
2023/07/15 07:38:39;;;;;;;0.80;0.40;;;;;;;22.03;100.00;99800.73;105056;1253;60550;-48
2023/07/15 07:41:07;;;;;;;2.00;0.50;;;;;;;22.09;100.00;99802.27;104961;1256;60477;-47
2023/07/15 07:43:35;;;;;;;1.00;0.50;;;;;;;22.15;100.00;99802.98;105757;1258;73767;-46
2023/07/15 07:46:11;;;;;;;0.50;0.40;;;;;;;22.19;100.00;99805.29;104929;1259;67874;-46
2023/07/15 07:48:38;;;;;;;0.40;0.30;;;;;;;22.26;100.00;99798.85;105758;1256;71422;-46
2023/07/15 07:51:07;;;;;;;2.60;0.40;;;;;;;22.30;100.00;99801.55;104962;1262;60535;-47
2023/07/15 07:53:34;;;;;;;2.00;0.50;;;;;;;22.34;100.00;99797.27;105176;1256;60543;-47
2023/07/15 07:56:02;;;;;;;0.90;0.40;;;;;;;22.39;100.00;99798.23;104798;1257;73901;-48
2023/07/15 07:58:29;;;;;;;1.50;0.30;;;;;;;22.44;100.00;99796.94;104989;1259;67832;-47
2023/07/15 08:00:58;;;;;;;0.30;0.30;;;;;;;22.46;100.00;99798.48;105557;1256;72697;-47
2023/07/15 08:03:25;;;;;;;0.50;0.40;;;;;;;22.51;100.00;99795.85;104799;1256;60457;-47
2023/07/15 08:05:53;;;;;;;1.40;0.30;;;;;;;22.56;100.00;99794.37;104716;1256;60482;-47
2023/07/15 08:08:20;;;;;;;0.80;0.40;;;;;;;22.62;100.00;99792.55;104884;1255;72577;-47
2023/07/15 08:10:47;;;;;;;1.00;0.60;;;;;;;22.70;100.00;99794.39;104981;1256;67515;-47
2023/07/15 08:13:15;;;;;;;2.30;0.40;;;;;;;22.75;100.00;99789.84;104943;1254;71489;-46
2023/07/15 08:15:42;;;;;;;2.00;0.30;;;;;;;22.82;100.00;99795.02;105117;1254;60563;-47
2023/07/15 08:18:09;;;;;;;0.60;0.40;;;;;;;22.88;100.00;99792.08;105031;1253;60628;-48
2023/07/15 08:20:37;;;;;;;1.90;0.40;;;;;;;22.94;100.00;99788.52;105068;1254;73806;-48
2023/07/15 08:23:05;;;;;;;1.10;0.50;;;;;;;23.02;100.00;99784.37;105361;1253;67591;-47
2023/07/15 08:25:33;;;;;;;1.80;0.30;;;;;;;23.11;100.00;99788.05;105115;1253;71422;-47
2023/07/15 08:28:00;;;;;;;1.00;0.40;;;;;;;23.17;100.00;99779.03;105129;1254;60617;-47
2023/07/15 08:30:27;;;;;;;0.90;0.30;;;;;;;23.21;100.00;99779.80;104954;1256;60457;-45
2023/07/15 08:32:55;;;;;;;0.60;0.30;;;;;;;23.25;100.00;99776.55;104952;1258;74319;-47
2023/07/15 08:35:22;;;;;;;0.40;0.30;;;;;;;23.32;100.00;99776.08;104881;1256;66798;-46
2023/07/15 08:37:50;;;;;;;0.90;0.30;;;;;;;23.36;100.00;99776.55;105094;1259;71426;-47
2023/07/15 08:40:21;;;;;;;2.30;0.30;;;;;;;23.41;100.00;99774.60;104915;1256;60532;-46
2023/07/15 08:42:48;;;;;;;1.00;0.40;;;;;;;23.45;100.00;99773.14;105066;1256;60515;-48
2023/07/15 08:45:17;;;;;;;0.60;0.30;;;;;;;23.50;100.00;99769.16;104966;1259;74323;-48
2023/07/15 08:47:44;;;;;;;0.40;0.20;;;;;;;23.53;100.00;99767.04;106084;1253;66739;-49
2023/07/15 08:50:15;;;;;;;1.00;0.30;;;;;;;23.57;100.00;99766.17;105892;1258;72727;-47
2023/07/15 08:52:43;;;;;;;2.20;0.30;;;;;;;23.61;100.00;99763.92;105068;1259;60479;-47
2023/07/15 08:55:12;;;;;;;0.40;0.30;;;;;;;23.68;100.00;99761.82;105234;1258;63540;-48
2023/07/15 08:57:39;;;;;;;1.10;0.20;;;;;;;23.74;100.00;99758.41;104795;1255;72107;-47
2023/07/15 09:00:12;;;;;;;2.10;0.50;;;;;;;23.79;100.00;99759.27;104993;1258;67713;-47
2023/07/15 09:02:39;;;;;;;0.30;0.20;;;;;;;23.84;100.00;99755.06;105163;1257;71810;-47
2023/07/15 09:05:07;;;;;;;0.30;0.20;;;;;;;23.91;100.00;99756.81;105155;1256;60462;-48
2023/07/15 09:07:55;;;;;;;0.70;0.30;;;;;;;23.99;100.00;99752.48;105286;1253;60497;-48
2023/07/15 09:10:23;;;;;;;0.30;0.20;;;;;;;24.06;100.00;99755.02;104902;1254;74274;-49
2023/07/15 09:12:54;;;;;;;0.30;0.30;;;;;;;24.16;100.00;99754.95;106744;1256;68125;-47
2023/07/15 09:15:21;;;;;;;2.30;1.70;;;;;;;24.23;100.00;99756.10;104791;1256;73151;-47
2023/07/15 09:17:53;;;;;;;0.70;0.20;;;;;;;24.27;100.00;99752.92;104851;1253;60537;-46
2023/07/15 09:20:21;;;;;;;0.60;0.20;;;;;;;24.28;100.00;99755.76;105089;1256;60511;-47
2023/07/15 09:22:58;;;;;;;1.60;0.30;;;;;;;24.25;100.00;99758.48;105171;1258;73806;-47
2023/07/15 09:25:26;;;;;;;3.80;0.30;;;;;;;24.19;100.00;99752.05;105613;1259;67659;-46
2023/07/15 09:27:54;;;;;;;2.10;0.30;;;;;;;24.18;100.00;99749.08;104854;1254;72955;-47
2023/07/15 09:30:22;;;;;;;0.90;0.30;;;;;;;24.21;100.00;99748.00;104896;1255;60559;-49
2023/07/15 09:32:49;;;;;;;0.40;0.30;;;;;;;24.28;100.00;99749.84;104923;1258;60450;-47
2023/07/15 09:35:17;;;;;;;0.50;0.20;;;;;;;24.35;100.00;99759.80;105115;1259;73821;-48
2023/07/15 09:37:48;;;;;;;0.70;0.30;;;;;;;24.41;100.00;99756.95;105158;1259;67521;-47
2023/07/15 09:40:16;;;;;;;0.60;0.40;;;;;;;24.47;100.00;99751.63;108957;1253;71244;-49
2023/07/15 09:42:53;;;;;;;0.30;0.20;;;;;;;24.53;100.00;99750.63;106486;1256;60466;-48
2023/07/15 09:45:32;;;;;;;0.30;0.20;;;;;;;24.62;100.00;99750.48;109151;1254;59458;-46
2023/07/15 09:48:00;;;;;;;0.50;0.30;;;;;;;24.70;100.00;99749.93;106556;1253;72616;-46
2023/07/15 09:50:28;;;;;;;2.20;0.30;;;;;;;24.76;100.00;99746.21;109089;1256;66508;-48
2023/07/15 09:52:55;;;;;;;0.50;0.30;;;;;;;24.81;100.00;99747.89;108894;1253;73364;-47
2023/07/15 09:55:25;;;;;;;0.30;0.20;;;;;;;24.83;100.00;99750.35;108878;1252;58908;-48
2023/07/15 09:58:30;;;;;;;0.40;0.30;;;;;;;24.85;100.00;99753.81;109225;1253;59980;-49
2023/07/15 10:01:11;;;;;;;0.40;0.30;;;;;;;24.89;100.00;99753.81;108953;1253;72383;-49
2023/07/15 10:03:52;;;;;;;0.40;0.20;;;;;;;24.93;100.00;99747.31;106711;1254;67574;-48
2023/07/15 10:06:19;;;;;;;0.30;0.30;;;;;;;24.98;100.00;99745.49;104964;1259;70749;-47
2023/07/15 10:08:47;;;;;;;0.30;0.20;;;;;;;24.97;100.00;99739.95;104901;1256;60655;-48
2023/07/15 10:11:14;;;;;;;0.40;0.30;;;;;;;24.90;100.00;99741.92;109083;1253;59117;-49
2023/07/15 10:13:42;;;;;;;0.70;0.30;;;;;;;24.83;100.00;99743.39;108990;1254;72726;-48
2023/07/15 10:16:09;;;;;;;0.40;0.20;;;;;;;24.77;100.00;99743.08;109213;1255;67527;-47
2023/07/15 10:18:37;;;;;;;2.70;0.30;;;;;;;24.76;100.00;99737.73;109050;1256;71457;-46
2023/07/15 10:21:05;;;;;;;0.30;0.20;;;;;;;24.80;100.00;99733.02;107146;1254;60562;-46
2023/07/15 10:23:33;;;;;;;2.10;0.60;;;;;;;24.86;100.00;99735.89;105939;1254;60541;-48
2023/07/15 10:26:05;;;;;;;0.50;0.20;;;;;;;24.86;100.00;99736.65;106857;1258;75896;-45
2023/07/15 10:28:40;;;;;;;0.30;0.20;;;;;;;24.84;100.00;99740.29;104936;1260;66464;-47
2023/07/15 10:31:12;;;;;;;0.30;0.20;;;;;;;24.87;100.00;99740.79;105324;1253;71888;-45
2023/07/15 10:33:56;;;;;;;2.20;0.20;;;;;;;24.90;100.00;99737.55;104986;1256;61008;-48
2023/07/15 10:36:53;;;;;;;;;;;;;;;24.96;100.00;99731.63;105434;1257;60575;-48
2023/07/15 10:39:22;;;;;;;2.00;0.30;;;;;;;25.02;100.00;99727.63;104933;1253;73880;-47
2023/07/15 10:41:51;;;;;;;0.50;0.20;;;;;;;25.01;100.00;99725.66;104932;1253;66761;-48
2023/07/15 10:44:23;;;;;;;0.30;0.20;;;;;;;24.97;100.00;99726.76;105663;1259;72725;-48
2023/07/15 10:47:11;;;;;;;0.50;0.20;;;;;;;24.89;100.00;99728.65;104865;1255;60567;-47
2023/07/15 10:49:39;;;;;;;0.20;0.20;;;;;;;24.77;100.00;99728.70;105051;1254;60449;-47
2023/07/15 10:52:07;;;;;;;0.30;0.30;;;;;;;24.66;100.00;99727.45;105074;1253;72582;-48
2023/07/15 10:54:38;;;;;;;0.30;0.20;;;;;;;24.60;100.00;99718.97;104767;1256;66872;-47
2023/07/15 10:57:10;;;;;;;0.30;0.20;;;;;;;24.61;100.00;99718.23;105163;1259;71366;-47
2023/07/15 10:59:39;;;;;;;0.40;0.30;;;;;;;24.68;100.00;99718.38;105231;1259;60565;-47
2023/07/15 11:02:06;;;;;;;0.30;0.20;;;;;;;24.75;100.00;99712.86;104803;1253;60499;-48
2023/07/15 11:04:35;;;;;;;0.60;0.30;;;;;;;24.82;100.00;99715.44;105046;1254;73784;-48
2023/07/15 11:07:04;;;;;;;0.20;0.20;;;;;;;24.87;100.00;99710.45;105138;1259;68113;-47
2023/07/15 11:09:41;;;;;;;0.70;0.30;;;;;;;24.93;100.00;99715.23;105086;1258;72892;-48
2023/07/15 11:12:10;;;;;;;2.00;0.30;;;;;;;24.92;100.00;99709.45;105151;1255;60441;-49
2023/07/15 11:14:40;;;;;;;1.30;0.10;;;;;;;24.86;100.00;99708.77;105481;1259;60662;-48
2023/07/15 11:17:08;;;;;;;0.50;0.30;;;;;;;24.84;100.00;99711.23;105466;1256;73273;-48
2023/07/15 11:19:35;;;;;;;0.20;0.20;;;;;;;24.87;100.00;99711.42;105261;1254;67564;-48
2023/07/15 11:22:09;;;;;;;0.30;0.20;;;;;;;24.92;100.00;99714.84;104936;1259;72685;-49
2023/07/15 11:24:36;;;;;;;1.80;0.30;;;;;;;24.87;100.00;99714.09;104969;1253;60436;-49
2023/07/15 11:27:04;;;;;;;1.50;0.50;;;;;;;24.78;100.00;99718.22;104939;1254;60644;-49